createdAt,value
2023-04-16T00:00:48.370Z,95976.94
2023-04-16T00:01:50.266Z,95977.09
2023-04-16T00:02:51.900Z,95971.59
2023-04-16T00:03:54.200Z,95976.59
2023-04-16T00:04:56.133Z,95978.09
2023-04-16T00:05:57.690Z,95972.44
2023-04-16T00:06:59.125Z,95976.59
2023-04-16T00:08:00.721Z,95976.56
2023-04-16T00:09:02.265Z,95974.22
2023-04-16T00:10:04.069Z,95976.72
2023-04-16T00:11:05.689Z,95969.94
2023-04-16T00:12:07.610Z,95979.06
2023-04-16T00:13:09.085Z,95981.22
2023-04-16T00:14:10.567Z,95981.72
2023-04-16T00:15:12.130Z,95970.97
2023-04-16T00:16:14.010Z,95977.47
2023-04-16T00:17:15.833Z,95973.16
2023-04-16T00:18:17.310Z,95974.59
2023-04-16T00:19:18.864Z,95977.03
2023-04-16T00:20:21.147Z,95978.06
2023-04-16T00:21:22.668Z,95984.72
2023-04-16T00:22:24.150Z,95986.41
2023-04-16T00:23:25.665Z,95978.81
2023-04-16T00:24:27.447Z,95979.81
2023-04-16T00:25:28.949Z,95982.41
2023-04-16T00:26:30.643Z,95987.06
2023-04-16T00:27:32.202Z,95982.72
2023-04-16T00:28:33.734Z,95985.81
2023-04-16T00:29:35.367Z,95990.34
2023-04-16T00:30:36.901Z,95985.53
2023-04-16T00:31:38.663Z,95978.91
2023-04-16T00:32:40.153Z,95989.34
2023-04-16T00:33:41.691Z,95984.69
2023-04-16T00:34:43.396Z,95983.06
2023-04-16T00:35:48.380Z,95983.91
2023-04-16T00:36:49.877Z,95989.03
2023-04-16T00:37:51.376Z,95981.72
2023-04-16T00:38:53.998Z,95984.09
2023-04-16T00:39:55.650Z,95981.44
2023-04-16T00:40:59.756Z,95986.19
2023-04-16T00:42:01.813Z,95982.06
2023-04-16T00:43:03.491Z,95984.09
2023-04-16T00:44:04.969Z,95979.44
2023-04-16T00:45:07.126Z,95985.56
2023-04-16T00:46:08.985Z,95987.38
2023-04-16T00:47:11.572Z,95988.72
2023-04-16T00:48:13.121Z,95984.13
2023-04-16T00:49:14.890Z,95989.25
2023-04-16T00:50:17.585Z,95986.06
2023-04-16T00:51:21.335Z,95985.38
2023-04-16T00:52:23.041Z,95988.19
2023-04-16T00:53:26.248Z,95987.38
2023-04-16T00:54:28.410Z,96000.59
2023-04-16T00:55:29.953Z,95990.81
2023-04-16T00:56:33.612Z,95989.34
2023-04-16T00:57:35.110Z,95991.69
2023-04-16T00:58:36.774Z,95987.72
2023-04-16T00:59:38.274Z,95986.75
2023-04-16T01:00:40.058Z,95990.53
2023-04-16T01:01:41.794Z,95990.53
2023-04-16T01:02:43.563Z,95989.19
2023-04-16T01:03:47.901Z,95983.91
2023-04-16T01:04:49.567Z,95988.16
2023-04-16T01:05:51.331Z,95986.53
2023-04-16T01:06:52.918Z,95981.69
2023-04-16T01:07:58.831Z,95984.19
2023-04-16T01:09:00.678Z,95989.53
2023-04-16T01:10:03.347Z,95988.38
2023-04-16T01:11:05.748Z,95990.56
2023-04-16T01:12:07.233Z,95995.03
2023-04-16T01:13:08.778Z,95982.78
2023-04-16T01:14:10.259Z,96001.63
2023-04-16T01:15:11.881Z,95985.38
2023-04-16T01:16:13.495Z,95990.84
2023-04-16T01:17:15.056Z,95996.19
2023-04-16T01:18:18.143Z,95991.38
2023-04-16T01:19:19.612Z,95984.56
2023-04-16T01:20:21.147Z,95995.00
2023-04-16T01:21:22.766Z,95999.31
2023-04-16T01:22:24.253Z,95997.13
2023-04-16T01:23:25.873Z,96001.41
2023-04-16T01:24:28.131Z,95991.84
2023-04-16T01:25:29.753Z,96000.00
2023-04-16T01:26:31.593Z,95995.00
2023-04-16T01:27:33.084Z,96002.50
2023-04-16T01:28:35.278Z,95996.66
2023-04-16T01:29:37.039Z,95997.19
2023-04-16T01:30:38.791Z,95996.19
2023-04-16T01:31:48.528Z,96000.03
2023-04-16T01:33:15.016Z,95999.16
2023-04-16T01:34:16.955Z,95998.69
2023-04-16T01:35:19.330Z,96002.66
2023-04-16T01:36:20.959Z,96003.81
2023-04-16T01:37:22.444Z,96000.63
2023-04-16T01:38:23.996Z,96002.75
2023-04-16T01:39:25.512Z,96002.44
2023-04-16T01:40:26.978Z,96002.44
2023-04-16T01:41:28.441Z,96006.88
2023-04-16T01:42:29.967Z,96004.25
2023-04-16T01:43:31.545Z,96007.41
2023-04-16T01:44:33.326Z,96002.44
2023-04-16T01:45:35.513Z,96006.09
2023-04-16T01:46:38.112Z,96003.28
2023-04-16T01:47:40.306Z,96008.25
2023-04-16T01:48:42.175Z,96005.28
2023-04-16T01:49:45.619Z,96003.28
2023-04-16T01:50:47.300Z,96001.81
2023-04-16T01:51:48.936Z,96006.94
2023-04-16T01:52:50.497Z,96004.28
2023-04-16T01:53:51.957Z,96001.31
2023-04-16T01:54:53.490Z,95999.81
2023-04-16T01:55:55.055Z,95996.66
2023-04-16T01:56:57.267Z,96003.97
2023-04-16T01:57:58.765Z,96000.50
2023-04-16T01:59:03.608Z,96001.63
2023-04-16T02:00:11.482Z,95998.66
2023-04-16T02:01:20.246Z,96000.00
2023-04-16T02:02:27.962Z,95992.03
2023-04-16T02:03:31.232Z,95998.13
2023-04-16T02:04:32.950Z,96005.44
2023-04-16T02:05:34.471Z,96003.31
2023-04-16T02:06:36.041Z,95997.34
2023-04-16T02:07:37.604Z,95999.31
2023-04-16T02:08:39.076Z,96000.13
2023-04-16T02:09:41.462Z,95993.50
2023-04-16T02:10:46.731Z,95998.78
2023-04-16T02:11:48.326Z,95995.50
2023-04-16T02:12:49.971Z,95998.66
2023-04-16T02:13:51.712Z,96005.72
2023-04-16T02:14:53.905Z,96004.25
2023-04-16T02:15:56.501Z,96007.59
2023-04-16T02:17:09.875Z,95995.66
2023-04-16T02:18:13.035Z,95999.47
2023-04-16T02:19:14.533Z,96004.09
2023-04-16T02:20:18.082Z,96004.44
2023-04-16T02:21:27.575Z,96003.13
2023-04-16T02:22:29.299Z,95997.94
2023-04-16T02:23:30.790Z,95998.31
2023-04-16T02:24:33.890Z,96006.63
2023-04-16T02:25:41.462Z,95995.69
2023-04-16T02:26:45.096Z,96002.78
2023-04-16T02:27:50.290Z,96004.13
2023-04-16T02:29:06.882Z,96008.44
2023-04-16T02:30:17.649Z,95998.69
2023-04-16T02:31:19.633Z,96010.75
2023-04-16T02:32:23.086Z,96008.22
2023-04-16T02:33:26.568Z,96005.13
2023-04-16T02:34:34.595Z,96005.31
2023-04-16T02:35:37.286Z,95998.38
2023-04-16T02:36:39.410Z,96003.31
2023-04-16T02:37:40.968Z,96013.41
2023-04-16T02:38:42.438Z,96012.59
2023-04-16T02:39:45.021Z,96002.28
2023-04-16T02:40:48.526Z,96013.44
2023-04-16T02:41:52.402Z,96007.09
2023-04-16T02:42:55.224Z,96007.63
2023-04-16T02:43:57.251Z,96011.94
2023-04-16T02:44:58.945Z,96011.78
2023-04-16T02:46:00.963Z,96013.75
2023-04-16T02:47:02.447Z,96009.97
2023-04-16T02:48:04.103Z,96018.72
2023-04-16T02:49:05.841Z,96014.72
2023-04-16T02:50:07.950Z,96012.22
2023-04-16T02:51:09.517Z,96012.94
2023-04-16T02:52:10.986Z,96006.94
2023-04-16T02:53:12.488Z,96012.72
2023-04-16T02:54:13.944Z,96008.94
2023-04-16T02:55:16.053Z,96005.94
2023-04-16T02:56:17.804Z,96003.13
2023-04-16T02:57:19.369Z,96008.41
2023-04-16T02:58:22.026Z,96004.25
2023-04-16T02:59:23.529Z,96009.44
2023-04-16T03:00:25.611Z,96012.09
2023-04-16T03:01:28.458Z,96013.91
2023-04-16T03:02:30.161Z,96011.78
2023-04-16T03:03:31.783Z,96014.91
2023-04-16T03:04:33.444Z,96019.06
2023-04-16T03:05:35.066Z,96015.91
2023-04-16T03:06:36.780Z,96005.97
2023-04-16T03:07:39.245Z,96014.91
2023-04-16T03:08:40.728Z,96014.25
2023-04-16T03:09:42.259Z,96006.66
2023-04-16T03:10:43.794Z,96011.94
2023-04-16T03:11:45.381Z,96013.44
2023-04-16T03:12:47.050Z,96013.44
2023-04-16T03:13:48.877Z,96012.78
2023-04-16T03:14:52.495Z,96014.91
2023-04-16T03:15:54.208Z,96019.09
2023-04-16T03:16:56.026Z,96021.38
2023-04-16T03:17:57.894Z,96026.53
2023-04-16T03:18:59.431Z,96014.59
2023-04-16T03:20:00.932Z,96023.38
2023-04-16T03:21:02.490Z,96016.06
2023-04-16T03:22:04.399Z,96017.41
2023-04-16T03:23:06.140Z,96015.75
2023-04-16T03:24:07.640Z,96019.22
2023-04-16T03:25:09.437Z,96017.91
2023-04-16T03:26:10.960Z,96018.44
2023-04-16T03:27:12.586Z,96018.59
2023-04-16T03:28:15.041Z,96027.72
2023-04-16T03:29:17.074Z,96023.69
2023-04-16T03:30:18.785Z,96027.19
2023-04-16T03:31:20.618Z,96023.03
2023-04-16T03:32:22.211Z,96027.31
2023-04-16T03:33:24.125Z,96029.50
2023-04-16T03:34:26.088Z,96033.81
2023-04-16T03:35:27.975Z,96028.34
2023-04-16T03:36:29.490Z,96024.81
2023-04-16T03:37:31.924Z,96036.94
2023-04-16T03:38:33.736Z,96031.69
2023-04-16T03:39:35.497Z,96032.31
2023-04-16T03:40:37.015Z,96032.63
2023-04-16T03:41:38.570Z,96035.13
2023-04-16T03:42:40.057Z,96034.47
2023-04-16T03:43:41.589Z,96038.75
2023-04-16T03:44:44.889Z,96038.13
2023-04-16T03:45:47.418Z,96033.63
2023-04-16T03:46:48.969Z,96033.00
2023-04-16T03:47:52.849Z,96036.63
2023-04-16T03:48:57.396Z,96036.81
2023-04-16T03:49:58.930Z,96039.09
2023-04-16T03:51:00.651Z,96040.63
2023-04-16T03:52:02.806Z,96039.31
2023-04-16T03:53:04.289Z,96042.09
2023-04-16T03:54:06.198Z,96039.44
2023-04-16T03:55:08.396Z,96045.72
2023-04-16T03:56:10.028Z,96035.50
2023-04-16T03:57:12.136Z,96040.94
2023-04-16T03:58:14.002Z,96040.94
2023-04-16T03:59:15.592Z,96035.47
2023-04-16T04:00:19.081Z,96034.50
2023-04-16T04:01:33.471Z,96035.63
2023-04-16T04:02:35.618Z,96040.78
2023-04-16T04:03:37.431Z,96038.16
2023-04-16T04:04:39.370Z,96043.13
2023-04-16T04:05:42.199Z,96037.81
2023-04-16T04:06:46.950Z,96037.00
2023-04-16T04:07:48.641Z,96035.81
2023-04-16T04:08:50.404Z,96038.50
2023-04-16T04:09:51.874Z,96040.97
2023-04-16T04:10:53.426Z,96040.63
2023-04-16T04:11:57.451Z,96037.63
2023-04-16T04:12:59.203Z,96038.47
2023-04-16T04:14:00.774Z,96040.78
2023-04-16T04:15:02.339Z,96037.81
2023-04-16T04:16:04.713Z,96035.50
2023-04-16T04:17:08.075Z,96041.25
2023-04-16T04:18:09.650Z,96039.13
2023-04-16T04:19:11.678Z,96035.00
2023-04-16T04:20:13.251Z,96043.13
2023-04-16T04:21:17.926Z,96044.47
2023-04-16T04:22:19.847Z,96041.81
2023-04-16T04:23:21.564Z,96040.13
2023-04-16T04:24:23.226Z,96051.75
2023-04-16T04:25:25.121Z,96048.41
2023-04-16T04:26:26.906Z,96050.59
2023-04-16T04:27:28.487Z,96050.44
2023-04-16T04:28:30.723Z,96054.59
2023-04-16T04:29:33.455Z,96049.28
2023-04-16T04:30:36.274Z,96056.06
2023-04-16T04:31:37.965Z,96059.19
2023-04-16T04:32:39.662Z,96048.09
2023-04-16T04:33:41.168Z,96054.41
2023-04-16T04:34:42.687Z,96055.91
2023-04-16T04:35:44.454Z,96060.03
2023-04-16T04:36:46.316Z,96064.66
2023-04-16T04:37:49.011Z,96059.84
2023-04-16T04:38:53.761Z,96065.97
2023-04-16T04:39:56.123Z,96063.53
2023-04-16T04:40:57.818Z,96058.69
2023-04-16T04:42:03.116Z,96056.91
2023-04-16T04:43:04.642Z,96064.84
2023-04-16T04:44:06.418Z,96064.69
2023-04-16T04:45:08.952Z,96067.34
2023-04-16T04:46:10.878Z,96063.00
2023-04-16T04:47:12.590Z,96059.38
2023-04-16T04:48:15.252Z,96068.16
2023-04-16T04:49:17.002Z,96070.97
2023-04-16T04:50:18.939Z,96066.34
2023-04-16T04:51:21.528Z,96067.50
2023-04-16T04:52:23.028Z,96069.78
2023-04-16T04:53:25.492Z,96069.16
2023-04-16T04:54:27.887Z,96074.59
2023-04-16T04:55:30.029Z,96075.28
2023-04-16T04:56:33.232Z,96073.63
2023-04-16T04:57:34.768Z,96080.25
2023-04-16T04:58:37.209Z,96073.78
2023-04-16T04:59:38.694Z,96078.56
2023-04-16T05:00:40.332Z,96076.28
2023-04-16T05:01:41.962Z,96079.28
2023-04-16T05:02:43.596Z,96082.06
2023-04-16T05:03:45.424Z,96086.88
2023-04-16T05:04:47.012Z,96085.53
2023-04-16T05:05:48.476Z,96082.06
2023-04-16T05:06:49.973Z,96095.00
2023-04-16T05:07:51.573Z,96089.53
2023-04-16T05:08:53.058Z,96097.66
2023-04-16T05:09:54.492Z,96092.00
2023-04-16T05:10:55.973Z,96097.50
2023-04-16T05:11:57.814Z,96090.69
2023-04-16T05:12:59.308Z,96097.50
2023-04-16T05:14:00.967Z,96098.81
2023-04-16T05:15:02.454Z,96101.44
2023-04-16T05:16:04.105Z,96102.13
2023-04-16T05:17:06.063Z,96102.94
2023-04-16T05:18:07.651Z,96103.13
2023-04-16T05:19:09.354Z,96104.94
2023-04-16T05:20:11.415Z,96104.63
2023-04-16T05:21:12.848Z,96105.09
2023-04-16T05:22:14.650Z,96108.09
2023-04-16T05:23:16.274Z,96104.94
2023-04-16T05:24:17.789Z,96111.88
2023-04-16T05:25:19.344Z,96109.72
2023-04-16T05:26:21.168Z,96109.88
2023-04-16T05:27:22.626Z,96116.19
2023-04-16T05:28:24.310Z,96113.38
2023-04-16T05:29:25.906Z,96106.09
2023-04-16T05:30:27.366Z,96115.06
2023-04-16T05:31:28.876Z,96112.22
2023-04-16T05:32:30.457Z,96108.59
2023-04-16T05:33:31.959Z,96104.94
2023-04-16T05:34:33.811Z,96112.25
2023-04-16T05:35:35.570Z,96120.00
2023-04-16T05:36:37.181Z,96121.00
2023-04-16T05:37:38.711Z,96117.00
2023-04-16T05:38:40.260Z,96117.69
2023-04-16T05:39:41.705Z,96117.53
2023-04-16T05:40:43.473Z,96121.31
2023-04-16T05:41:45.022Z,96124.81
2023-04-16T05:42:46.520Z,96124.31
2023-04-16T05:43:48.001Z,96121.50
2023-04-16T05:44:50.751Z,96121.31
2023-04-16T05:45:52.266Z,96130.13
2023-04-16T05:46:53.863Z,96124.81
2023-04-16T05:47:55.387Z,96129.81
2023-04-16T05:48:56.908Z,96125.66
2023-04-16T05:49:58.360Z,96124.31
2023-04-16T05:50:59.817Z,96131.09
2023-04-16T05:52:01.650Z,96137.41
2023-04-16T05:53:06.901Z,96133.28
2023-04-16T05:54:08.398Z,96138.91
2023-04-16T05:55:10.438Z,96139.41
2023-04-16T05:56:11.932Z,96143.38
2023-04-16T05:57:14.006Z,96141.22
2023-04-16T05:58:15.585Z,96144.88
2023-04-16T05:59:17.052Z,96133.63
2023-04-16T06:00:18.657Z,96141.91
2023-04-16T06:01:21.281Z,96147.03
2023-04-16T06:02:23.136Z,96144.69
2023-04-16T06:03:24.862Z,96140.56
2023-04-16T06:04:26.414Z,96146.69
2023-04-16T06:05:28.060Z,96145.53
2023-04-16T06:06:29.583Z,96147.53
2023-04-16T06:07:31.032Z,96144.06
2023-04-16T06:08:32.479Z,96152.00
2023-04-16T06:09:33.983Z,96146.53
2023-04-16T06:10:35.736Z,96149.69
2023-04-16T06:11:37.261Z,96144.56
2023-04-16T06:12:38.687Z,96146.53
2023-04-16T06:13:40.273Z,96152.50
2023-04-16T06:14:41.734Z,96142.88
2023-04-16T06:15:43.285Z,96150.50
2023-04-16T06:16:44.776Z,96150.84
2023-04-16T06:17:46.277Z,96151.19
2023-04-16T06:18:47.928Z,96151.66
2023-04-16T06:19:49.398Z,96149.50
2023-04-16T06:20:50.895Z,96153.00
2023-04-16T06:21:52.976Z,96152.81
2023-04-16T06:22:55.847Z,96157.16
2023-04-16T06:23:57.380Z,96157.16
2023-04-16T06:24:58.846Z,96152.34
2023-04-16T06:26:00.351Z,96154.16
2023-04-16T06:27:02.723Z,96157.81
2023-04-16T06:28:04.319Z,96152.50
2023-04-16T06:29:05.887Z,96161.78
2023-04-16T06:30:13.605Z,96155.00
2023-04-16T06:31:15.475Z,96162.44
2023-04-16T06:32:17.562Z,96161.13
2023-04-16T06:33:19.264Z,96156.16
2023-04-16T06:34:20.831Z,96163.78
2023-04-16T06:35:22.416Z,96161.97
2023-04-16T06:36:23.902Z,96161.47
2023-04-16T06:37:25.406Z,96162.94
2023-04-16T06:38:26.892Z,96163.25
2023-04-16T06:39:28.331Z,96163.25
2023-04-16T06:40:29.806Z,96157.66
2023-04-16T06:41:31.300Z,96155.00
2023-04-16T06:42:32.774Z,96157.13
2023-04-16T06:43:34.442Z,96163.41
2023-04-16T06:44:36.170Z,96160.59
2023-04-16T06:45:37.731Z,96162.59
2023-04-16T06:46:39.254Z,96163.75
2023-04-16T06:47:41.026Z,96160.91
2023-04-16T06:48:42.679Z,96165.41
2023-04-16T06:49:44.263Z,96159.13
2023-04-16T06:50:45.771Z,96169.25
2023-04-16T06:51:47.656Z,96163.13
2023-04-16T06:52:49.142Z,96167.56
2023-04-16T06:53:50.604Z,96161.78
2023-04-16T06:54:52.066Z,96169.25
2023-04-16T06:55:53.577Z,96168.91
2023-04-16T06:56:55.333Z,96164.09
2023-04-16T06:57:57.098Z,96171.56
2023-04-16T06:59:00.819Z,96172.72
2023-04-16T07:00:05.032Z,96167.75
2023-04-16T07:01:06.816Z,96175.03
2023-04-16T07:02:10.484Z,96170.91
2023-04-16T07:03:12.487Z,96176.50
2023-04-16T07:04:14.613Z,96177.03
2023-04-16T07:05:16.301Z,96175.69
2023-04-16T07:06:17.817Z,96179.03
2023-04-16T07:07:19.346Z,96176.03
2023-04-16T07:08:21.004Z,96179.19
2023-04-16T07:09:22.580Z,96181.19
2023-04-16T07:10:24.120Z,96181.34
2023-04-16T07:11:26.526Z,96186.31
2023-04-16T07:12:28.066Z,96187.81
2023-04-16T07:13:29.584Z,96184.00
2023-04-16T07:14:31.128Z,96191.28
2023-04-16T07:15:32.666Z,96183.84
2023-04-16T07:16:34.184Z,96191.78
2023-04-16T07:17:35.741Z,96188.47
2023-04-16T07:18:37.378Z,96179.19
2023-04-16T07:19:39.098Z,96189.31
2023-04-16T07:20:40.793Z,96188.47
2023-04-16T07:21:43.623Z,96190.44
2023-04-16T07:22:45.278Z,96184.97
2023-04-16T07:23:46.847Z,96177.84
2023-04-16T07:24:48.308Z,96187.63
2023-04-16T07:25:49.780Z,96183.31
2023-04-16T07:26:51.305Z,96187.31
2023-04-16T07:27:52.797Z,96192.59
2023-04-16T07:28:54.456Z,96190.28
2023-04-16T07:29:56.081Z,96189.13
2023-04-16T07:30:57.677Z,96188.78
2023-04-16T07:31:59.327Z,96191.94
2023-04-16T07:33:02.484Z,96189.78
2023-04-16T07:34:04.077Z,96191.09
2023-04-16T07:35:06.040Z,96191.75
2023-04-16T07:36:07.635Z,96190.09
2023-04-16T07:37:09.253Z,96194.09
2023-04-16T07:38:10.789Z,96196.75
2023-04-16T07:39:13.407Z,96192.94
2023-04-16T07:40:15.239Z,96197.06
2023-04-16T07:41:16.822Z,96203.03
2023-04-16T07:42:18.426Z,96195.06
2023-04-16T07:43:19.910Z,96197.56
2023-04-16T07:44:21.515Z,96196.88
2023-04-16T07:45:23.851Z,96196.91
2023-04-16T07:46:30.411Z,96200.53
2023-04-16T07:47:35.117Z,96205.84
2023-04-16T07:48:36.690Z,96209.16
2023-04-16T07:49:38.595Z,96201.69
2023-04-16T07:50:41.733Z,96203.69
2023-04-16T07:51:43.331Z,96203.34
2023-04-16T07:52:45.849Z,96205.34
2023-04-16T07:53:47.367Z,96203.03
2023-04-16T07:54:48.848Z,96206.50
2023-04-16T07:55:50.594Z,96210.34
2023-04-16T07:56:52.300Z,96212.97
2023-04-16T07:57:53.907Z,96208.00
2023-04-16T07:58:55.446Z,96208.34
2023-04-16T07:59:56.880Z,96215.97
2023-04-16T08:00:58.807Z,96212.97
2023-04-16T08:02:00.411Z,96212.28
2023-04-16T08:03:02.085Z,96219.28
2023-04-16T08:04:03.923Z,96217.13
2023-04-16T08:05:06.161Z,96217.31
2023-04-16T08:06:07.674Z,96213.63
2023-04-16T08:07:09.538Z,96218.75
2023-04-16T08:08:11.095Z,96221.28
2023-04-16T08:09:12.777Z,96220.78
2023-04-16T08:10:14.272Z,96222.28
2023-04-16T08:11:15.862Z,96219.09
2023-04-16T08:12:18.058Z,96220.44
2023-04-16T08:13:19.539Z,96225.25
2023-04-16T08:14:21.031Z,96221.94
2023-04-16T08:15:22.538Z,96229.25
2023-04-16T08:16:24.264Z,96232.72
2023-04-16T08:17:26.048Z,96225.56
2023-04-16T08:18:27.563Z,96225.75
2023-04-16T08:19:29.009Z,96226.91
2023-04-16T08:20:30.570Z,96227.94
2023-04-16T08:21:32.533Z,96234.69
2023-04-16T08:22:34.054Z,96232.56
2023-04-16T08:23:35.575Z,96233.88
2023-04-16T08:24:37.059Z,96233.53
2023-04-16T08:25:38.569Z,96239.00
2023-04-16T08:26:40.691Z,96242.00
2023-04-16T08:27:42.179Z,96242.97
2023-04-16T08:28:43.621Z,96238.84
2023-04-16T08:29:45.064Z,96242.16
2023-04-16T08:30:46.602Z,96244.16
2023-04-16T08:31:48.308Z,96242.63
2023-04-16T08:32:50.560Z,96240.66
2023-04-16T08:33:52.496Z,96244.16
2023-04-16T08:34:54.296Z,96244.66
2023-04-16T08:35:55.805Z,96242.50
2023-04-16T08:36:57.333Z,96249.16
2023-04-16T08:38:02.198Z,96251.13
2023-04-16T08:39:03.921Z,96253.59
2023-04-16T08:40:05.900Z,96257.56
2023-04-16T08:41:12.031Z,96252.78
2023-04-16T08:42:23.494Z,96254.91
2023-04-16T08:43:25.966Z,96255.59
2023-04-16T08:44:33.846Z,96248.44
2023-04-16T08:45:36.444Z,96249.75
2023-04-16T08:46:40.624Z,96251.09
2023-04-16T08:47:47.335Z,96253.59
2023-04-16T08:48:49.937Z,96250.59
2023-04-16T08:49:56.818Z,96254.09
2023-04-16T08:51:01.584Z,96252.91
2023-04-16T08:52:06.681Z,96252.56
2023-04-16T08:53:11.818Z,96252.91
2023-04-16T08:54:21.061Z,96248.94
2023-04-16T08:55:26.416Z,96257.88
2023-04-16T08:56:30.539Z,96250.41
2023-04-16T08:58:01.669Z,96257.38
2023-04-16T08:59:05.566Z,96256.38
2023-04-16T09:00:11.421Z,96252.22
2023-04-16T09:01:13.570Z,96254.88
2023-04-16T09:02:15.550Z,96255.41
2023-04-16T09:03:17.264Z,96261.72
2023-04-16T09:04:19.532Z,96263.06
2023-04-16T09:05:25.521Z,96267.19
2023-04-16T09:06:31.327Z,96263.88
2023-04-16T09:07:34.186Z,96270.03
2023-04-16T09:08:36.442Z,96277.28
2023-04-16T09:09:39.309Z,96265.84
2023-04-16T09:10:41.120Z,96273.63
2023-04-16T09:11:44.222Z,96269.13
2023-04-16T09:12:45.984Z,96266.81
2023-04-16T09:13:47.706Z,96274.16
2023-04-16T09:14:50.011Z,96270.81
2023-04-16T09:15:54.903Z,96272.81
2023-04-16T09:16:57.549Z,96268.47
2023-04-16T09:17:59.113Z,96267.94
2023-04-16T09:19:00.920Z,96269.78
2023-04-16T09:20:08.906Z,96264.13
2023-04-16T09:21:11.243Z,96270.06
2023-04-16T09:22:12.916Z,96280.22
2023-04-16T09:23:14.439Z,96271.72
2023-04-16T09:24:16.458Z,96264.72
2023-04-16T09:25:21.976Z,96270.16
2023-04-16T09:26:24.244Z,96271.16
2023-04-16T09:27:26.278Z,96270.44
2023-04-16T09:28:40.833Z,96268.50
2023-04-16T09:29:42.610Z,96269.88
2023-04-16T09:30:44.138Z,96273.47
2023-04-16T09:32:02.102Z,96271.72
2023-04-16T09:33:13.708Z,96267.88
2023-04-16T09:34:15.649Z,96271.16
2023-04-16T09:35:20.875Z,96269.13
2023-04-16T09:36:23.477Z,96271.84
2023-04-16T09:37:26.426Z,96272.34
2023-04-16T09:38:46.398Z,96276.19
2023-04-16T09:39:57.747Z,96282.03
2023-04-16T09:41:08.890Z,96274.75
2023-04-16T09:42:11.550Z,96280.91
2023-04-16T09:43:15.491Z,96271.06
2023-04-16T09:44:17.000Z,96279.25
2023-04-16T09:45:18.469Z,96282.06
2023-04-16T09:46:20.083Z,96284.81
2023-04-16T09:47:22.803Z,96276.56
2023-04-16T09:48:34.437Z,96276.28
2023-04-16T09:49:42.178Z,96287.53
2023-04-16T09:50:51.131Z,96281.47
2023-04-16T09:51:56.097Z,96275.81
2023-04-16T09:53:02.441Z,96279.28
2023-04-16T09:54:07.725Z,96279.13
2023-04-16T09:55:09.310Z,96280.25
2023-04-16T09:56:12.339Z,96281.63
2023-04-16T09:57:14.106Z,96284.13
2023-04-16T09:58:19.731Z,96289.44
2023-04-16T09:59:22.456Z,96292.56
2023-04-16T10:00:23.908Z,96286.75
2023-04-16T10:01:25.979Z,96292.38
2023-04-16T10:02:29.219Z,96293.41
2023-04-16T10:03:35.834Z,96288.94
2023-04-16T10:04:52.053Z,96288.94
2023-04-16T10:05:53.897Z,96293.94
2023-04-16T10:07:06.108Z,96286.19
2023-04-16T10:08:14.563Z,96301.81
2023-04-16T10:09:16.097Z,96297.84
2023-04-16T10:10:17.818Z,96298.66
2023-04-16T10:11:20.882Z,96302.78
2023-04-16T10:12:22.442Z,96292.50
2023-04-16T10:13:27.760Z,96293.84
2023-04-16T10:14:29.344Z,96301.84
2023-04-16T10:15:31.107Z,96298.16
2023-04-16T10:16:33.401Z,96311.13
2023-04-16T10:17:36.301Z,96304.81
2023-04-16T10:18:42.342Z,96305.97
2023-04-16T10:19:44.344Z,96308.28
2023-04-16T10:20:46.179Z,96303.66
2023-04-16T10:21:48.462Z,96309.66
2023-04-16T10:22:50.547Z,96307.78
2023-04-16T10:23:52.805Z,96314.78
2023-04-16T10:24:55.656Z,96311.94
2023-04-16T10:25:59.583Z,96312.94
2023-04-16T10:27:01.751Z,96308.78
2023-04-16T10:28:03.500Z,96313.94
2023-04-16T10:29:06.658Z,96312.31
2023-04-16T10:30:09.353Z,96306.81
2023-04-16T10:31:12.338Z,96307.34
2023-04-16T10:32:14.460Z,96306.47
2023-04-16T10:33:16.344Z,96312.94
2023-04-16T10:34:19.698Z,96305.63
2023-04-16T10:35:21.637Z,96309.81
2023-04-16T10:36:24.673Z,96312.41
2023-04-16T10:37:32.456Z,96311.78
2023-04-16T10:38:35.208Z,96314.63
2023-04-16T10:39:39.598Z,96310.97
2023-04-16T10:40:44.926Z,96313.59
2023-04-16T10:41:46.837Z,96316.09
2023-04-16T10:42:59.288Z,96315.56
2023-04-16T10:44:09.907Z,96309.94
2023-04-16T10:45:11.554Z,96307.16
2023-04-16T10:46:19.748Z,96308.47
2023-04-16T10:47:24.771Z,96314.09
2023-04-16T10:48:27.466Z,96314.06
2023-04-16T10:49:35.521Z,96308.28
2023-04-16T10:50:38.097Z,96304.63
2023-04-16T10:51:39.634Z,96306.97
2023-04-16T10:52:41.188Z,96310.59
2023-04-16T10:53:42.788Z,96308.72
2023-04-16T10:54:44.790Z,96308.13
2023-04-16T10:56:04.837Z,96300.47
2023-04-16T10:57:08.944Z,96299.97
2023-04-16T10:58:27.805Z,96303.94
2023-04-16T10:59:35.228Z,96306.75
2023-04-16T11:00:51.213Z,96308.56
2023-04-16T11:01:56.600Z,96307.59
2023-04-16T11:02:58.470Z,96307.44
2023-04-16T11:04:04.450Z,96310.06
2023-04-16T11:05:06.614Z,96306.06
2023-04-16T11:06:27.913Z,96306.78
2023-04-16T11:07:35.930Z,96309.59
2023-04-16T11:08:53.351Z,96310.44
2023-04-16T11:10:05.365Z,96311.41
2023-04-16T11:11:07.147Z,96318.56
2023-04-16T11:12:12.541Z,96318.53
2023-04-16T11:13:14.352Z,96313.84
2023-04-16T11:14:15.923Z,96312.19
2023-04-16T11:15:19.551Z,96316.75
2023-04-16T11:16:21.114Z,96314.47
2023-04-16T11:17:22.810Z,96312.31
2023-04-16T11:18:26.011Z,96318.81
2023-04-16T11:19:27.753Z,96317.47
2023-04-16T11:20:29.250Z,96317.97
2023-04-16T11:21:31.758Z,96320.81
2023-04-16T11:22:39.008Z,96323.59
2023-04-16T11:23:48.462Z,96321.91
2023-04-16T11:24:57.029Z,96319.78
2023-04-16T11:25:59.198Z,96313.19
2023-04-16T11:27:01.694Z,96313.66
2023-04-16T11:28:03.202Z,96315.38
2023-04-16T11:29:14.595Z,96310.34
2023-04-16T11:30:16.878Z,96317.97
2023-04-16T11:31:18.460Z,96313.66
2023-04-16T11:32:23.256Z,96320.66
2023-04-16T11:33:25.616Z,96322.66
2023-04-16T11:34:27.159Z,96315.44
2023-04-16T11:35:28.684Z,96320.03
2023-04-16T11:36:45.983Z,96325.69
2023-04-16T11:37:48.722Z,96326.50
2023-04-16T11:38:50.250Z,96323.72
2023-04-16T11:39:52.995Z,96319.19
2023-04-16T11:40:55.088Z,96327.34
2023-04-16T11:41:56.656Z,96319.28
2023-04-16T11:43:02.802Z,96316.75
2023-04-16T11:44:21.163Z,96320.44
2023-04-16T11:45:22.632Z,96316.66
2023-04-16T11:46:38.170Z,96318.22
2023-04-16T11:47:51.983Z,96322.63
2023-04-16T11:48:55.495Z,96312.78
2023-04-16T11:49:58.654Z,96320.34
2023-04-16T11:51:00.222Z,96321.84
2023-04-16T11:52:01.742Z,96318.88
2023-04-16T11:53:06.316Z,96313.56
2023-04-16T11:54:11.118Z,96319.19
2023-04-16T11:55:13.496Z,96318.28
2023-04-16T11:56:15.539Z,96322.75
2023-04-16T11:57:24.533Z,96318.09
2023-04-16T11:58:26.089Z,96323.59
2023-04-16T11:59:27.998Z,96322.25
2023-04-16T12:00:35.083Z,96323.06
2023-04-16T12:01:37.626Z,96318.13
2023-04-16T12:02:41.961Z,96318.81
2023-04-16T12:03:49.568Z,96326.56
2023-04-16T12:04:51.718Z,96328.31
2023-04-16T12:05:53.381Z,96322.00
2023-04-16T12:07:08.676Z,96325.44
2023-04-16T12:08:11.897Z,96327.63
2023-04-16T12:09:27.193Z,96327.94
2023-04-16T12:10:30.242Z,96324.56
2023-04-16T12:11:41.375Z,96326.81
2023-04-16T12:12:42.926Z,96327.22
2023-04-16T12:14:07.777Z,96321.06
2023-04-16T12:15:09.665Z,96328.25
2023-04-16T12:16:19.807Z,96325.34
2023-04-16T12:17:21.543Z,96328.22
2023-04-16T12:18:26.821Z,96324.03
2023-04-16T12:19:28.382Z,96323.53
2023-04-16T12:20:41.586Z,96327.63